^^
TXWeather Station Historical Data
Daily Summary for April 10, 2022 Units:  English    Metric   Both
Daily Weekly Monthly Yearly Custom
  High: Low: Average:
Temperature: 82.0 °F 63.0 °F 71.7 °F
Dew Point: 66.0 °F 58.0 °F 62.1 °F
Humidity: 86% 55% 73%
Wind Speed: 29mph 4mph 14.5mph
Wind Gust: 35mph - -
Wind- - SSE
Pressure: 30.0 in 29.9 in -
Precipitation: 0.000 in    
Historical Graphs
 
 
Tabular Data for April 10, 2022
Time Temperature Dew Point Pressure Wind Wind Speed Wind Gust Humidity Rainfall Rate (Hourly) solar
00:04 67.0 °F 59.0 °F 30.0 in South 12 mph 12 mph 77% 0.000 in 0.00 W/m2
00:09 67.0 °F 59.0 °F 30.0 in South 11 mph 12 mph 77% 0.000 in 0.00 W/m2
00:14 67.0 °F 59.0 °F 30.0 in South 11 mph 12 mph 77% 0.000 in 0.00 W/m2
00:19 67.0 °F 59.0 °F 30.0 in South 14 mph 15 mph 77% 0.000 in 0.00 W/m2
00:24 66.0 °F 59.0 °F 30.0 in SSE 12 mph 15 mph 77% 0.000 in 0.00 W/m2
00:29 66.0 °F 59.0 °F 30.0 in South 10 mph 14 mph 77% 0.000 in 0.00 W/m2
00:34 66.0 °F 59.0 °F 30.0 in South 11 mph 11 mph 77% 0.000 in 0.00 W/m2
00:39 66.0 °F 59.0 °F 30.0 in SSE 9 mph 12 mph 77% 0.000 in 0.00 W/m2
00:44 66.0 °F 59.0 °F 30.0 in SSE 10 mph 10 mph 78% 0.000 in 0.00 W/m2
00:49 66.0 °F 59.0 °F 30.0 in SSE 12 mph 12 mph 78% 0.000 in 0.00 W/m2
00:54 66.0 °F 59.0 °F 30.0 in South 11 mph 12 mph 78% 0.000 in 0.00 W/m2
00:59 66.0 °F 59.0 °F 30.0 in SSE 12 mph 14 mph 78% 0.000 in 0.00 W/m2
01:04 66.0 °F 59.0 °F 30.0 in South 12 mph 12 mph 79% 0.000 in 0.00 W/m2
01:09 66.0 °F 59.0 °F 30.0 in South 11 mph 11 mph 79% 0.000 in 0.00 W/m2
01:14 66.0 °F 59.0 °F 30.0 in South 12 mph 15 mph 79% 0.000 in 0.00 W/m2
01:19 66.0 °F 59.0 °F 30.0 in SSE 9 mph 10 mph 79% 0.000 in 0.00 W/m2
01:24 66.0 °F 59.0 °F 30.0 in South 13 mph 13 mph 79% 0.000 in 0.00 W/m2
01:29 66.0 °F 59.0 °F 30.0 in South 10 mph 10 mph 79% 0.000 in 0.00 W/m2
01:34 66.0 °F 59.0 °F 30.0 in South 11 mph 11 mph 79% 0.000 in 0.00 W/m2
01:39 66.0 °F 59.0 °F 30.0 in South 11 mph 12 mph 79% 0.000 in 0.00 W/m2
01:44 66.0 °F 59.0 °F 30.0 in South 9 mph 11 mph 79% 0.000 in 0.00 W/m2
01:49 66.0 °F 59.0 °F 30.0 in SSE 10 mph 12 mph 79% 0.000 in 0.00 W/m2
01:54 66.0 °F 59.0 °F 30.0 in SSE 12 mph 12 mph 79% 0.000 in 0.00 W/m2
01:59 65.0 °F 59.0 °F 30.0 in SSE 11 mph 11 mph 79% 0.000 in 0.00 W/m2
02:04 65.0 °F 59.0 °F 30.0 in SSE 9 mph 11 mph 79% 0.000 in 0.00 W/m2
02:09 65.0 °F 59.0 °F 30.0 in South 11 mph 14 mph 79% 0.000 in 0.00 W/m2
02:14 65.0 °F 59.0 °F 30.0 in South 10 mph 14 mph 79% 0.000 in 0.00 W/m2
02:19 65.0 °F 59.0 °F 30.0 in South 9 mph 10 mph 79% 0.000 in 0.00 W/m2
02:24 65.0 °F 59.0 °F 30.0 in South 7 mph 10 mph 79% 0.000 in 0.00 W/m2
02:29 65.0 °F 59.0 °F 30.0 in South 12 mph 12 mph 79% 0.000 in 0.00 W/m2
02:34 65.0 °F 59.0 °F 30.0 in SSE 7 mph 11 mph 79% 0.000 in 0.00 W/m2
02:39 65.0 °F 59.0 °F 30.0 in South 9 mph 9 mph 79% 0.000 in 0.00 W/m2
02:44 65.0 °F 59.0 °F 30.0 in SSE 9 mph 11 mph 79% 0.000 in 0.00 W/m2
02:49 65.0 °F 58.0 °F 30.0 in SSE 9 mph 11 mph 79% 0.000 in 0.00 W/m2
02:54 65.0 °F 58.0 °F 30.0 in SSE 10 mph 10 mph 79% 0.000 in 0.00 W/m2
02:59 65.0 °F 59.0 °F 30.0 in South 10 mph 10 mph 80% 0.000 in 0.00 W/m2
03:04 65.0 °F 59.0 °F 30.0 in SSE 8 mph 9 mph 80% 0.000 in 0.00 W/m2
03:09 65.0 °F 59.0 °F 30.0 in SSE 8 mph 9 mph 80% 0.000 in 0.00 W/m2
03:14 65.0 °F 59.0 °F 30.0 in South 10 mph 10 mph 80% 0.000 in 0.00 W/m2
03:19 65.0 °F 59.0 °F 30.0 in SSE 10 mph 11 mph 80% 0.000 in 0.00 W/m2
03:24 65.0 °F 59.0 °F 30.0 in SSE 13 mph 15 mph 80% 0.000 in 0.00 W/m2
03:29 65.0 °F 59.0 °F 30.0 in SSE 8 mph 10 mph 80% 0.000 in 0.00 W/m2
03:34 65.0 °F 58.0 °F 30.0 in SSE 9 mph 10 mph 80% 0.000 in 0.00 W/m2
03:39 65.0 °F 58.0 °F 30.0 in SSE 13 mph 13 mph 80% 0.000 in 0.00 W/m2
03:44 65.0 °F 59.0 °F 30.0 in SSE 9 mph 10 mph 81% 0.000 in 0.00 W/m2
03:49 65.0 °F 59.0 °F 30.0 in SSE 9 mph 10 mph 81% 0.000 in 0.00 W/m2
03:54 65.0 °F 59.0 °F 30.0 in SSE 9 mph 11 mph 81% 0.000 in 0.00 W/m2
03:59 64.0 °F 59.0 °F 30.0 in SSE 11 mph 12 mph 81% 0.000 in 0.00 W/m2
04:04 64.0 °F 59.0 °F 30.0 in SSE 8 mph 9 mph 81% 0.000 in 0.00 W/m2
04:09 64.0 °F 59.0 °F 30.0 in SSE 10 mph 11 mph 81% 0.000 in 0.00 W/m2
04:14 64.0 °F 59.0 °F 30.0 in SSE 10 mph 10 mph 81% 0.000 in 0.00 W/m2
04:19 64.0 °F 58.0 °F 30.0 in SSE 11 mph 11 mph 81% 0.000 in 0.00 W/m2
04:24 64.0 °F 58.0 °F 30.0 in SSE 6 mph 8 mph 81% 0.000 in 0.00 W/m2
04:29 64.0 °F 58.0 °F 30.0 in SSE 5 mph 5 mph 81% 0.000 in 0.00 W/m2
04:34 64.0 °F 58.0 °F 30.0 in SSE 6 mph 6 mph 81% 0.000 in 0.00 W/m2
04:39 64.0 °F 58.0 °F 29.9 in SE 5 mph 8 mph 81% 0.000 in 0.00 W/m2
04:44 64.0 °F 58.0 °F 29.9 in SE 7 mph 7 mph 81% 0.000 in 0.00 W/m2
04:49 64.0 °F 58.0 °F 29.9 in SSE 6 mph 8 mph 81% 0.000 in 0.00 W/m2
04:54 64.0 °F 58.0 °F 29.9 in SSE 7 mph 7 mph 81% 0.000 in 0.00 W/m2
04:59 64.0 °F 58.0 °F 29.9 in SSE 7 mph 7 mph 81% 0.000 in 0.00 W/m2
05:04 64.0 °F 58.0 °F 29.9 in SSE 7 mph 7 mph 81% 0.000 in 0.00 W/m2
05:09 64.0 °F 58.0 °F 29.9 in SSE 6 mph 7 mph 82% 0.000 in 0.00 W/m2
05:14 64.0 °F 58.0 °F 29.9 in SSE 8 mph 8 mph 82% 0.000 in 0.00 W/m2
05:19 64.0 °F 58.0 °F 29.9 in SE 9 mph 9 mph 82% 0.000 in 0.00 W/m2
05:24 64.0 °F 58.0 °F 29.9 in SSE 6 mph 8 mph 82% 0.000 in 0.00 W/m2
05:29 64.0 °F 58.0 °F 29.9 in SE 6 mph 7 mph 82% 0.000 in 0.00 W/m2
05:34 63.0 °F 58.0 °F 29.9 in SE 7 mph 8 mph 82% 0.000 in 0.00 W/m2
05:39 63.0 °F 58.0 °F 29.9 in SSE 9 mph 9 mph 82% 0.000 in 0.00 W/m2
05:44 63.0 °F 58.0 °F 29.9 in SE 7 mph 7 mph 82% 0.000 in 0.00 W/m2
05:49 63.0 °F 58.0 °F 29.9 in SSE 8 mph 8 mph 82% 0.000 in 0.00 W/m2
05:54 63.0 °F 58.0 °F 29.9 in SSE 6 mph 6 mph 82% 0.000 in 0.00 W/m2
05:59 63.0 °F 58.0 °F 29.9 in SSE 8 mph 8 mph 82% 0.000 in 0.00 W/m2
06:04 63.0 °F 58.0 °F 29.9 in SSE 8 mph 8 mph 82% 0.000 in 0.00 W/m2
06:09 63.0 °F 58.0 °F 29.9 in SSE 7 mph 8 mph 82% 0.000 in 0.00 W/m2
06:14 63.0 °F 58.0 °F 29.9 in SSE 6 mph 7 mph 82% 0.000 in 0.00 W/m2
06:19 63.0 °F 58.0 °F 29.9 in SSE 9 mph 9 mph 83% 0.000 in 0.00 W/m2
06:24 63.0 °F 58.0 °F 29.9 in SSE 7 mph 7 mph 83% 0.000 in 0.00 W/m2
06:29 63.0 °F 58.0 °F 29.9 in SSE 7 mph 8 mph 83% 0.000 in 0.00 W/m2
06:34 63.0 °F 58.0 °F 29.9 in SSE 9 mph 10 mph 83% 0.000 in 0.00 W/m2
06:39 63.0 °F 58.0 °F 29.9 in SSE 8 mph 9 mph 83% 0.000 in 0.00 W/m2
06:44 63.0 °F 58.0 °F 29.9 in SSE 6 mph 6 mph 83% 0.000 in 0.00 W/m2
06:49 63.0 °F 58.0 °F 29.9 in SSE 8 mph 9 mph 83% 0.000 in 0.00 W/m2
06:54 63.0 °F 58.0 °F 29.9 in SSE 9 mph 9 mph 83% 0.000 in 0.00 W/m2
06:59 63.0 °F 58.0 °F 29.9 in SSE 9 mph 11 mph 83% 0.000 in 0.00 W/m2
07:04 64.0 °F 58.0 °F 29.9 in SSE 12 mph 12 mph 83% 0.000 in 0.00 W/m2
07:09 64.0 °F 59.0 °F 29.9 in SSE 8 mph 8 mph 84% 0.000 in 7.00 W/m2
07:14 64.0 °F 59.0 °F 29.9 in SE 7 mph 8 mph 84% 0.000 in 11.00 W/m2
07:19 64.0 °F 59.0 °F 29.9 in SSE 7 mph 7 mph 84% 0.000 in 14.00 W/m2
07:24 64.0 °F 59.0 °F 29.9 in SSE 9 mph 12 mph 84% 0.000 in 19.00 W/m2
07:29 64.0 °F 59.0 °F 29.9 in SSE 8 mph 12 mph 84% 0.000 in 23.00 W/m2
07:34 64.0 °F 59.0 °F 29.9 in SSE 7 mph 9 mph 84% 0.000 in 26.00 W/m2
07:39 64.0 °F 59.0 °F 29.9 in SSE 8 mph 9 mph 84% 0.000 in 30.00 W/m2
07:44 64.0 °F 59.0 °F 29.9 in SSE 12 mph 12 mph 84% 0.000 in 33.00 W/m2
07:49 64.0 °F 60.0 °F 29.9 in SSE 11 mph 11 mph 84% 0.000 in 39.00 W/m2
07:54 65.0 °F 60.0 °F 29.9 in SSE 9 mph 11 mph 84% 0.000 in 44.00 W/m2
07:59 65.0 °F 60.0 °F 29.9 in SSE 10 mph 10 mph 84% 0.000 in 49.00 W/m2
08:04 66.0 °F 60.0 °F 29.9 in SSE 14 mph 14 mph 84% 0.000 in 56.00 W/m2
08:09 66.0 °F 61.0 °F 29.9 in SSE 13 mph 13 mph 84% 0.000 in 70.00 W/m2
08:14 66.0 °F 61.0 °F 29.9 in SSE 14 mph 14 mph 83% 0.000 in 70.00 W/m2
08:19 67.0 °F 61.0 °F 29.9 in SSE 13 mph 13 mph 83% 0.000 in 88.00 W/m2
08:24 67.0 °F 61.0 °F 29.9 in SSE 15 mph 15 mph 83% 0.000 in 105.00 W/m2
08:29 68.0 °F 62.0 °F 29.9 in SSE 13 mph 18 mph 82% 0.000 in 118.00 W/m2
08:34 68.0 °F 62.0 °F 29.9 in SSE 10 mph 12 mph 82% 0.000 in 128.00 W/m2
08:39 68.0 °F 62.0 °F 29.9 in SSE 11 mph 12 mph 81% 0.000 in 178.00 W/m2
08:44 69.0 °F 62.0 °F 29.9 in SSE 14 mph 17 mph 80% 0.000 in 200.00 W/m2
08:49 69.0 °F 62.0 °F 29.9 in SSE 17 mph 17 mph 79% 0.000 in 221.00 W/m2
08:54 70.0 °F 62.0 °F 29.9 in SSE 16 mph 17 mph 78% 0.000 in 251.00 W/m2
08:59 70.0 °F 62.0 °F 29.9 in SSE 17 mph 18 mph 76% 0.000 in 269.00 W/m2
09:04 71.0 °F 63.0 °F 29.9 in SSE 17 mph 18 mph 75% 0.000 in 297.00 W/m2
09:09 71.0 °F 63.0 °F 29.9 in SSE 22 mph 22 mph 74% 0.000 in 322.00 W/m2
09:14 72.0 °F 62.0 °F 29.9 in SSE 20 mph 22 mph 73% 0.000 in 348.00 W/m2
09:19 72.0 °F 63.0 °F 30.0 in SSE 13 mph 14 mph 72% 0.000 in 383.00 W/m2
09:24 73.0 °F 63.0 °F 30.0 in SSE 17 mph 21 mph 72% 0.000 in 420.00 W/m2
09:29 73.0 °F 63.0 °F 30.0 in SSE 22 mph 22 mph 71% 0.000 in 431.00 W/m2
09:34 73.0 °F 63.0 °F 30.0 in South 18 mph 23 mph 70% 0.000 in 452.00 W/m2
09:39 74.0 °F 63.0 °F 30.0 in South 18 mph 19 mph 69% 0.000 in 480.00 W/m2
09:44 74.0 °F 63.0 °F 30.0 in SSE 18 mph 21 mph 69% 0.000 in 492.00 W/m2
09:49 74.0 °F 63.0 °F 30.0 in SSE 21 mph 21 mph 68% 0.000 in 497.00 W/m2
09:54 74.0 °F 63.0 °F 30.0 in SSE 23 mph 23 mph 68% 0.000 in 519.00 W/m2
09:59 75.0 °F 63.0 °F 30.0 in South 23 mph 24 mph 67% 0.000 in 536.00 W/m2
10:04 75.0 °F 63.0 °F 30.0 in SSE 20 mph 22 mph 67% 0.000 in 548.00 W/m2
10:09 75.0 °F 63.0 °F 30.0 in SSE 17 mph 20 mph 66% 0.000 in 555.00 W/m2
10:14 76.0 °F 63.0 °F 30.0 in SSE 18 mph 22 mph 66% 0.000 in 575.00 W/m2
10:19 76.0 °F 63.0 °F 30.0 in South 15 mph 22 mph 64% 0.000 in 584.00 W/m2
10:24 76.0 °F 63.0 °F 30.0 in SSE 25 mph 25 mph 64% 0.000 in 610.00 W/m2
10:29 77.0 °F 63.0 °F 30.0 in SSE 22 mph 25 mph 63% 0.000 in 622.00 W/m2
10:34 77.0 °F 62.0 °F 30.0 in South 20 mph 30 mph 61% 0.000 in 628.00 W/m2
10:39 77.0 °F 62.0 °F 30.0 in South 22 mph 22 mph 60% 0.000 in 649.00 W/m2
10:44 78.0 °F 62.0 °F 30.0 in South 23 mph 23 mph 59% 0.000 in 659.00 W/m2
10:49 78.0 °F 63.0 °F 30.0 in SSE 18 mph 23 mph 59% 0.000 in 680.00 W/m2
10:54 79.0 °F 63.0 °F 30.0 in South 19 mph 20 mph 59% 0.000 in 682.00 W/m2
10:59 79.0 °F 62.0 °F 30.0 in SSE 21 mph 26 mph 57% 0.000 in 707.00 W/m2
11:04 80.0 °F 62.0 °F 30.0 in South 21 mph 26 mph 56% 0.000 in 721.00 W/m2
11:09 80.0 °F 63.0 °F 30.0 in SSE 26 mph 26 mph 56% 0.000 in 749.00 W/m2
11:14 80.0 °F 63.0 °F 30.0 in SSE 22 mph 22 mph 57% 0.000 in 763.00 W/m2
11:19 80.0 °F 64.0 °F 30.0 in South 18 mph 18 mph 57% 0.000 in 761.00 W/m2
11:24 80.0 °F 64.0 °F 30.0 in SSE 24 mph 27 mph 57% 0.000 in 773.00 W/m2
11:29 80.0 °F 64.0 °F 30.0 in SSE 21 mph 24 mph 57% 0.000 in 784.00 W/m2
11:34 80.0 °F 64.0 °F 30.0 in South 20 mph 22 mph 57% 0.000 in 800.00 W/m2
11:39 80.0 °F 64.0 °F 30.0 in South 17 mph 26 mph 57% 0.000 in 860.00 W/m2
11:44 80.0 °F 63.0 °F 29.9 in SSE 28 mph 28 mph 56% 0.000 in 860.00 W/m2
11:49 80.0 °F 63.0 °F 29.9 in SSE 20 mph 21 mph 56% 0.000 in 274.00 W/m2
11:54 80.0 °F 64.0 °F 29.9 in SSE 18 mph 21 mph 57% 0.000 in 858.00 W/m2
11:59 81.0 °F 64.0 °F 29.9 in South 22 mph 22 mph 56% 0.000 in 874.00 W/m2
12:04 81.0 °F 63.0 °F 29.9 in South 24 mph 24 mph 55% 0.000 in 874.00 W/m2
12:09 81.0 °F 64.0 °F 29.9 in South 22 mph 22 mph 56% 0.000 in 889.00 W/m2
12:14 81.0 °F 64.0 °F 29.9 in South 27 mph 27 mph 55% 0.000 in 926.00 W/m2
12:19 81.0 °F 64.0 °F 29.9 in South 18 mph 27 mph 56% 0.000 in 921.00 W/m2
12:24 81.0 °F 65.0 °F 29.9 in SSE 22 mph 22 mph 57% 0.000 in 988.00 W/m2
12:29 82.0 °F 65.0 °F 29.9 in South 16 mph 17 mph 57% 0.000 in 988.00 W/m2
12:34 82.0 °F 65.0 °F 29.9 in SSE 25 mph 25 mph 57% 0.000 in 1063.00 W/m2
12:39 82.0 °F 64.0 °F 29.9 in SSE 29 mph 29 mph 56% 0.000 in 1027.00 W/m2
12:44 81.0 °F 64.0 °F 29.9 in SSE 25 mph 25 mph 56% 0.000 in 455.00 W/m2
12:49 80.0 °F 64.0 °F 29.9 in SSE 19 mph 21 mph 58% 0.000 in 461.00 W/m2
12:54 81.0 °F 64.0 °F 29.9 in SSE 22 mph 23 mph 57% 0.000 in 833.00 W/m2
12:59 82.0 °F 64.0 °F 29.9 in South 16 mph 23 mph 56% 0.000 in 1055.00 W/m2
13:04 82.0 °F 64.0 °F 29.9 in South 18 mph 19 mph 56% 0.000 in 1055.00 W/m2
13:09 81.0 °F 64.0 °F 29.9 in South 25 mph 35 mph 56% 0.000 in 320.00 W/m2
13:14 81.0 °F 64.0 °F 29.9 in South 15 mph 35 mph 58% 0.000 in 366.00 W/m2
13:19 80.0 °F 64.0 °F 29.9 in SSE 25 mph 25 mph 58% 0.000 in 381.00 W/m2
13:24 80.0 °F 64.0 °F 29.9 in SSE 21 mph 25 mph 58% 0.000 in 413.00 W/m2
13:29 80.0 °F 64.0 °F 29.9 in SSE 18 mph 26 mph 58% 0.000 in 454.00 W/m2
13:34 80.0 °F 64.0 °F 29.9 in SSE 20 mph 26 mph 58% 0.000 in 411.00 W/m2
13:39 81.0 °F 65.0 °F 29.9 in SSE 21 mph 26 mph 58% 0.000 in 439.00 W/m2
13:44 81.0 °F 65.0 °F 29.9 in SSE 20 mph 25 mph 58% 0.000 in 439.00 W/m2
13:49 81.0 °F 65.0 °F 29.9 in SSE 19 mph 25 mph 58% 0.000 in 446.00 W/m2
13:54 81.0 °F 65.0 °F 29.9 in South 21 mph 22 mph 58% 0.000 in 466.00 W/m2
13:59 81.0 °F 66.0 °F 29.9 in SSE 22 mph 22 mph 59% 0.000 in 480.00 W/m2
14:04 81.0 °F 65.0 °F 29.9 in South 20 mph 29 mph 58% 0.000 in 480.00 W/m2
14:09 81.0 °F 65.0 °F 29.9 in SSE 21 mph 23 mph 58% 0.000 in 584.00 W/m2
14:14 81.0 °F 65.0 °F 29.9 in SSE 22 mph 24 mph 58% 0.000 in 432.00 W/m2
14:19 80.0 °F 65.0 °F 29.9 in SSE 21 mph 23 mph 59% 0.000 in 374.00 W/m2
14:24 80.0 °F 65.0 °F 29.9 in SSE 22 mph 23 mph 60% 0.000 in 374.00 W/m2
14:29 80.0 °F 65.0 °F 29.9 in SSE 20 mph 27 mph 60% 0.000 in 304.00 W/m2
14:34 79.0 °F 64.0 °F 29.9 in SSE 21 mph 24 mph 60% 0.000 in 250.00 W/m2
14:39 79.0 °F 64.0 °F 29.9 in SSE 24 mph 24 mph 61% 0.000 in 250.00 W/m2
14:44 79.0 °F 64.0 °F 29.9 in SSE 22 mph 23 mph 61% 0.000 in 200.00 W/m2
14:49 79.0 °F 64.0 °F 29.9 in SSE 23 mph 23 mph 61% 0.000 in 207.00 W/m2
14:54 78.0 °F 64.0 °F 29.9 in South 24 mph 29 mph 61% 0.000 in 214.00 W/m2
14:59 78.0 °F 64.0 °F 29.9 in SSE 24 mph 29 mph 61% 0.000 in 294.00 W/m2
15:04 78.0 °F 64.0 °F 29.9 in South 24 mph 25 mph 62% 0.000 in 294.00 W/m2
15:09 78.0 °F 64.0 °F 29.9 in SSE 21 mph 26 mph 62% 0.000 in 220.00 W/m2
15:14 78.0 °F 64.0 °F 29.9 in SSE 19 mph 22 mph 62% 0.000 in 258.00 W/m2
15:19 78.0 °F 64.0 °F 29.9 in South 25 mph 32 mph 62% 0.000 in 258.00 W/m2
15:24 78.0 °F 64.0 °F 29.9 in South 23 mph 23 mph 62% 0.000 in 294.00 W/m2
15:29 78.0 °F 64.0 °F 29.9 in South 27 mph 27 mph 62% 0.000 in 225.00 W/m2
15:34 78.0 °F 64.0 °F 29.9 in South 26 mph 27 mph 62% 0.000 in 225.00 W/m2
15:39 78.0 °F 64.0 °F 29.9 in SSE 17 mph 18 mph 63% 0.000 in 207.00 W/m2
15:44 78.0 °F 64.0 °F 29.9 in SSE 18 mph 19 mph 63% 0.000 in 278.00 W/m2
15:49 78.0 °F 64.0 °F 29.9 in SSE 23 mph 23 mph 63% 0.000 in 204.00 W/m2
15:54 78.0 °F 64.0 °F 29.9 in SSE 15 mph 18 mph 63% 0.000 in 188.00 W/m2
15:59 78.0 °F 64.0 °F 29.9 in SSE 18 mph 20 mph 63% 0.000 in 239.00 W/m2
16:04 78.0 °F 64.0 °F 29.9 in SSE 16 mph 16 mph 63% 0.000 in 206.00 W/m2
16:09 78.0 °F 64.0 °F 29.9 in SSE 19 mph 19 mph 63% 0.000 in 199.00 W/m2
16:14 78.0 °F 64.0 °F 29.9 in SSE 17 mph 22 mph 63% 0.000 in 178.00 W/m2
16:19 78.0 °F 64.0 °F 29.9 in SSE 25 mph 29 mph 63% 0.000 in 178.00 W/m2
16:24 78.0 °F 64.0 °F 29.9 in SSE 24 mph 28 mph 63% 0.000 in 199.00 W/m2
16:29 77.0 °F 64.0 °F 29.9 in SSE 18 mph 22 mph 63% 0.000 in 209.00 W/m2
16:34 77.0 °F 64.0 °F 29.9 in SSE 22 mph 22 mph 64% 0.000 in 156.00 W/m2
16:39 77.0 °F 64.0 °F 29.9 in SSE 14 mph 23 mph 64% 0.000 in 165.00 W/m2
16:44 77.0 °F 64.0 °F 29.9 in SSE 18 mph 22 mph 64% 0.000 in 120.00 W/m2
16:49 77.0 °F 64.0 °F 29.9 in SSE 20 mph 23 mph 64% 0.000 in 200.00 W/m2
16:54 77.0 °F 64.0 °F 29.9 in SSE 17 mph 20 mph 64% 0.000 in 171.00 W/m2
16:59 77.0 °F 64.0 °F 29.9 in SSE 17 mph 23 mph 64% 0.000 in 165.00 W/m2
17:04 77.0 °F 64.0 °F 29.9 in SSE 18 mph 23 mph 64% 0.000 in 128.00 W/m2
17:09 77.0 °F 64.0 °F 29.9 in SSE 16 mph 19 mph 65% 0.000 in 181.00 W/m2
17:14 77.0 °F 64.0 °F 29.9 in SSE 15 mph 20 mph 65% 0.000 in 169.00 W/m2
17:19 77.0 °F 64.0 °F 29.9 in SSE 15 mph 16 mph 65% 0.000 in 185.00 W/m2
17:24 77.0 °F 64.0 °F 29.9 in SSE 20 mph 24 mph 65% 0.000 in 185.00 W/m2
17:29 77.0 °F 64.0 °F 29.9 in SSE 16 mph 24 mph 64% 0.000 in 169.00 W/m2
17:34 77.0 °F 64.0 °F 29.9 in SSE 21 mph 22 mph 64% 0.000 in 160.00 W/m2
17:39 77.0 °F 63.0 °F 29.9 in SSE 24 mph 24 mph 63% 0.000 in 128.00 W/m2
17:44 77.0 °F 63.0 °F 29.9 in SSE 22 mph 22 mph 63% 0.000 in 118.00 W/m2
17:49 77.0 °F 64.0 °F 29.9 in SSE 18 mph 22 mph 64% 0.000 in 120.00 W/m2
17:54 77.0 °F 64.0 °F 29.9 in SSE 22 mph 22 mph 64% 0.000 in 105.00 W/m2
17:59 77.0 °F 64.0 °F 29.9 in SSE 19 mph 22 mph 64% 0.000 in 107.00 W/m2
18:04 77.0 °F 64.0 °F 29.9 in SSE 25 mph 25 mph 64% 0.000 in 338.00 W/m2
18:09 77.0 °F 63.0 °F 29.9 in SSE 22 mph 22 mph 63% 0.000 in 88.00 W/m2
18:14 77.0 °F 63.0 °F 29.9 in SE 14 mph 15 mph 64% 0.000 in 93.00 W/m2
18:19 77.0 °F 63.0 °F 29.9 in SSE 17 mph 17 mph 64% 0.000 in 123.00 W/m2
18:24 76.0 °F 63.0 °F 29.9 in SSE 28 mph 28 mph 64% 0.000 in 100.00 W/m2
18:29 76.0 °F 63.0 °F 29.9 in SSE 16 mph 20 mph 64% 0.000 in 44.00 W/m2
18:34 76.0 °F 63.0 °F 29.9 in SSE 20 mph 20 mph 65% 0.000 in 63.00 W/m2
18:39 76.0 °F 64.0 °F 29.9 in SSE 19 mph 23 mph 66% 0.000 in 63.00 W/m2
18:44 76.0 °F 64.0 °F 29.9 in SSE 16 mph 23 mph 66% 0.000 in 49.00 W/m2
18:49 76.0 °F 64.0 °F 29.9 in SSE 16 mph 16 mph 67% 0.000 in 33.00 W/m2
18:54 75.0 °F 64.0 °F 29.9 in South 12 mph 16 mph 67% 0.000 in 21.00 W/m2
18:59 75.0 °F 64.0 °F 29.9 in SSE 20 mph 20 mph 68% 0.000 in 26.00 W/m2
19:04 75.0 °F 64.0 °F 29.9 in SSE 18 mph 20 mph 68% 0.000 in 23.00 W/m2
19:09 75.0 °F 64.0 °F 29.9 in SSE 20 mph 20 mph 68% 0.000 in 12.00 W/m2
19:14 75.0 °F 64.0 °F 29.9 in SSE 20 mph 26 mph 69% 0.000 in 5.00 W/m2
19:19 75.0 °F 64.0 °F 29.9 in SSE 12 mph 13 mph 69% 0.000 in 5.00 W/m2
19:24 75.0 °F 64.0 °F 29.9 in SSE 19 mph 19 mph 69% 0.000 in 0.00 W/m2
19:29 74.0 °F 64.0 °F 29.9 in SSE 13 mph 19 mph 70% 0.000 in 0.00 W/m2
19:34 74.0 °F 64.0 °F 29.9 in SSE 19 mph 19 mph 70% 0.000 in 0.00 W/m2
19:39 74.0 °F 64.0 °F 29.9 in SSE 11 mph 19 mph 70% 0.000 in 0.00 W/m2
19:44 74.0 °F 64.0 °F 29.9 in SSE 15 mph 16 mph 70% 0.000 in 0.00 W/m2
19:49 74.0 °F 64.0 °F 29.9 in SSE 13 mph 14 mph 70% 0.000 in 0.00 W/m2
19:54 74.0 °F 64.0 °F 29.9 in SSE 15 mph 18 mph 71% 0.000 in 0.00 W/m2
19:59 74.0 °F 64.0 °F 29.9 in SSE 17 mph 21 mph 71% 0.000 in 0.00 W/m2
20:04 74.0 °F 64.0 °F 29.9 in SSE 15 mph 21 mph 71% 0.000 in 0.00 W/m2
20:09 73.0 °F 64.0 °F 29.9 in SSE 12 mph 16 mph 71% 0.000 in 0.00 W/m2
20:14 73.0 °F 64.0 °F 29.9 in SE 17 mph 17 mph 72% 0.000 in 0.00 W/m2
20:19 73.0 °F 64.0 °F 29.9 in SSE 14 mph 14 mph 73% 0.000 in 0.00 W/m2
20:24 73.0 °F 64.0 °F 29.9 in SSE 12 mph 16 mph 74% 0.000 in 0.00 W/m2
20:29 73.0 °F 64.0 °F 29.9 in SSE 14 mph 16 mph 74% 0.000 in 0.00 W/m2
20:34 72.0 °F 64.0 °F 29.9 in SSE 19 mph 19 mph 75% 0.000 in 0.00 W/m2
20:39 72.0 °F 64.0 °F 29.9 in SSE 19 mph 19 mph 76% 0.000 in 0.00 W/m2
20:44 72.0 °F 64.0 °F 29.9 in SSE 18 mph 18 mph 77% 0.000 in 0.00 W/m2
20:49 72.0 °F 64.0 °F 29.9 in SSE 18 mph 18 mph 78% 0.000 in 0.00 W/m2
20:54 71.0 °F 64.0 °F 29.9 in SE 13 mph 16 mph 79% 0.000 in 0.00 W/m2
20:59 71.0 °F 64.0 °F 29.9 in SE 10 mph 10 mph 79% 0.000 in 0.00 W/m2
21:04 71.0 °F 64.0 °F 29.9 in SSE 10 mph 14 mph 80% 0.000 in 0.00 W/m2
21:09 71.0 °F 64.0 °F 29.9 in SE 8 mph 11 mph 80% 0.000 in 0.00 W/m2
21:14 71.0 °F 64.0 °F 29.9 in SE 12 mph 12 mph 81% 0.000 in 0.00 W/m2
21:19 70.0 °F 64.0 °F 29.9 in SE 13 mph 13 mph 81% 0.000 in 0.00 W/m2
21:24 70.0 °F 65.0 °F 29.9 in SE 11 mph 11 mph 82% 0.000 in 0.00 W/m2
21:29 70.0 °F 65.0 °F 29.9 in SE 11 mph 11 mph 83% 0.000 in 0.00 W/m2
21:34 70.0 °F 65.0 °F 29.9 in SE 11 mph 11 mph 83% 0.000 in 0.00 W/m2
21:39 70.0 °F 65.0 °F 29.9 in SE 10 mph 11 mph 83% 0.000 in 0.00 W/m2
21:44 70.0 °F 64.0 °F 29.9 in SE 9 mph 9 mph 83% 0.000 in 0.00 W/m2
21:49 70.0 °F 65.0 °F 29.9 in SE 8 mph 10 mph 84% 0.000 in 0.00 W/m2
21:54 69.0 °F 64.0 °F 29.9 in SE 10 mph 10 mph 84% 0.000 in 0.00 W/m2
21:59 69.0 °F 64.0 °F 29.9 in SE 9 mph 9 mph 84% 0.000 in 0.00 W/m2
22:04 69.0 °F 65.0 °F 29.9 in SE 7 mph 7 mph 85% 0.000 in 0.00 W/m2
22:09 69.0 °F 65.0 °F 29.9 in SE 7 mph 8 mph 85% 0.000 in 0.00 W/m2
22:14 69.0 °F 65.0 °F 29.9 in SE 8 mph 8 mph 85% 0.000 in 0.00 W/m2
22:19 69.0 °F 65.0 °F 29.9 in SE 13 mph 13 mph 85% 0.000 in 0.00 W/m2
22:24 69.0 °F 64.0 °F 29.9 in SE 10 mph 13 mph 85% 0.000 in 0.00 W/m2
22:29 69.0 °F 64.0 °F 29.9 in SE 9 mph 9 mph 85% 0.000 in 0.00 W/m2
22:34 69.0 °F 65.0 °F 29.9 in SE 9 mph 11 mph 86% 0.000 in 0.00 W/m2
22:39 69.0 °F 65.0 °F 29.9 in SE 8 mph 10 mph 86% 0.000 in 0.00 W/m2
22:44 69.0 °F 65.0 °F 29.9 in SE 9 mph 10 mph 86% 0.000 in 0.00 W/m2
22:49 69.0 °F 64.0 °F 29.9 in SE 8 mph 10 mph 86% 0.000 in 0.00 W/m2
22:54 69.0 °F 64.0 °F 29.9 in SE 7 mph 8 mph 86% 0.000 in 0.00 W/m2
22:59 69.0 °F 64.0 °F 29.9 in SE 9 mph 9 mph 86% 0.000 in 0.00 W/m2
23:04 69.0 °F 64.0 °F 29.9 in SE 8 mph 8 mph 86% 0.000 in 0.00 W/m2
23:09 69.0 °F 64.0 °F 29.9 in SE 4 mph 8 mph 86% 0.000 in 0.00 W/m2
23:14 69.0 °F 64.0 °F 29.9 in SE 6 mph 8 mph 86% 0.000 in 0.00 W/m2
23:19 69.0 °F 64.0 °F 29.9 in ESE 7 mph 9 mph 86% 0.000 in 0.00 W/m2
23:24 69.0 °F 64.0 °F 29.9 in SE 10 mph 11 mph 86% 0.000 in 0.00 W/m2
23:29 69.0 °F 64.0 °F 29.9 in SE 9 mph 10 mph 86% 0.000 in 0.00 W/m2
23:34 69.0 °F 65.0 °F 29.9 in SE 10 mph 10 mph 86% 0.000 in 0.00 W/m2
23:39 69.0 °F 65.0 °F 29.9 in SSE 11 mph 12 mph 86% 0.000 in 0.00 W/m2
23:44 69.0 °F 64.0 °F 29.9 in SE 8 mph 12 mph 85% 0.000 in 0.00 W/m2
23:49 69.0 °F 65.0 °F 29.9 in SE 11 mph 15 mph 85% 0.000 in 0.00 W/m2
23:54 69.0 °F 65.0 °F 29.9 in SE 13 mph 13 mph 85% 0.000 in 0.00 W/m2
23:59 70.0 °F 65.0 °F 29.9 in SE 11 mph 11 mph 84% 0.000 in 0.00 W/m2
Villages of Bridgestone, Spring, TX USA
Compliments of Weather Underground - 4 mb